createdAt,value
2023-11-07T00:01:34.109Z,54.15
2023-11-07T00:04:02.084Z,54.21
2023-11-07T00:06:30.326Z,54.19
2023-11-07T00:08:58.184Z,54.20
2023-11-07T00:11:26.003Z,54.25
2023-11-07T00:13:53.853Z,54.47
2023-11-07T00:16:21.723Z,54.29
2023-11-07T00:18:49.934Z,54.37
2023-11-07T00:21:18.141Z,54.41
2023-11-07T00:23:45.917Z,54.43
2023-11-07T00:26:14.379Z,54.39
2023-11-07T00:28:48.425Z,54.51
2023-11-07T00:31:16.182Z,54.31
2023-11-07T00:33:44.070Z,54.28
2023-11-07T00:36:13.125Z,54.11
2023-11-07T00:38:40.922Z,54.21
2023-11-07T00:41:08.818Z,54.08
2023-11-07T00:43:36.738Z,54.06
2023-11-07T00:46:04.837Z,54.12
2023-11-07T00:48:33.046Z,54.28
2023-11-07T00:51:01.414Z,54.26
2023-11-07T00:53:29.218Z,54.16
2023-11-07T00:55:57.064Z,54.33
2023-11-07T00:58:24.802Z,54.32
2023-11-07T01:00:52.589Z,54.41
2023-11-07T01:03:20.393Z,54.33
2023-11-07T01:05:48.313Z,54.34
2023-11-07T01:08:16.429Z,54.42
2023-11-07T01:10:44.506Z,54.36
2023-11-07T01:13:12.997Z,54.32
2023-11-07T01:15:40.779Z,54.17
2023-11-07T01:18:08.988Z,54.25
2023-11-07T01:20:36.874Z,54.04
2023-11-07T01:23:04.688Z,54.06
2023-11-07T01:25:32.648Z,53.96
2023-11-07T01:28:00.467Z,53.75
2023-11-07T01:30:28.157Z,53.81
2023-11-07T01:32:56.754Z,53.83
2023-11-07T01:35:25.461Z,53.75
2023-11-07T01:37:53.766Z,53.69
2023-11-07T01:40:21.851Z,53.62
2023-11-07T01:42:49.748Z,53.64
2023-11-07T01:45:18.137Z,53.49
2023-11-07T01:47:46.391Z,53.41
2023-11-07T01:50:15.411Z,53.35
2023-11-07T01:52:43.502Z,53.36
2023-11-07T01:55:17.875Z,53.17
2023-11-07T01:57:47.109Z,53.24
2023-11-07T02:00:16.775Z,53.16
2023-11-07T02:02:46.056Z,53.21
2023-11-07T02:05:14.055Z,53.15
2023-11-07T02:07:41.828Z,53.15
2023-11-07T02:10:12.650Z,53.37
2023-11-07T02:12:40.457Z,53.72
2023-11-07T02:15:24.752Z,53.38
2023-11-07T02:17:52.583Z,53.57
2023-11-07T02:20:20.698Z,53.64
2023-11-07T02:22:54.500Z,53.68
2023-11-07T02:25:22.391Z,53.67
2023-11-07T02:27:50.167Z,53.69
2023-11-07T02:30:17.939Z,53.58
2023-11-07T02:32:45.886Z,53.47
2023-11-07T02:35:13.821Z,53.50
2023-11-07T02:37:42.056Z,53.51
2023-11-07T02:40:11.341Z,53.42
2023-11-07T02:42:39.336Z,53.51
2023-11-07T02:45:09.096Z,53.35
2023-11-07T02:47:41.961Z,53.25
2023-11-07T02:50:14.486Z,53.25
2023-11-07T02:52:42.325Z,53.22
2023-11-07T02:55:10.139Z,53.18
2023-11-07T02:57:37.860Z,53.31
2023-11-07T03:00:09.208Z,53.19
2023-11-07T03:02:38.493Z,53.13
2023-11-07T03:05:07.886Z,53.01
2023-11-07T03:07:36.239Z,53.07
2023-11-07T03:10:06.619Z,53.09
2023-11-07T03:12:34.838Z,53.34
2023-11-07T03:15:02.587Z,53.06
2023-11-07T03:17:30.374Z,53.30
2023-11-07T03:19:58.665Z,53.14
2023-11-07T03:22:28.003Z,53.16
2023-11-07T03:24:55.881Z,53.28
2023-11-07T03:27:23.877Z,53.21
2023-11-07T03:29:51.716Z,53.27
2023-11-07T03:32:21.233Z,53.27
2023-11-07T03:34:48.984Z,53.28
2023-11-07T03:37:16.746Z,53.38
2023-11-07T03:39:44.508Z,53.15
2023-11-07T03:42:13.872Z,53.30
2023-11-07T03:44:41.993Z,53.29
2023-11-07T03:47:10.672Z,53.28
2023-11-07T03:49:38.542Z,53.24
2023-11-07T03:52:06.771Z,53.29
2023-11-07T03:54:34.568Z,53.16
2023-11-07T03:57:02.424Z,53.24
2023-11-07T03:59:30.206Z,53.18
2023-11-07T04:01:59.462Z,53.17
2023-11-07T04:04:28.035Z,53.13
2023-11-07T04:06:55.876Z,53.00
2023-11-07T04:09:23.757Z,53.04
2023-11-07T04:11:51.550Z,53.13
2023-11-07T04:14:19.378Z,52.91
2023-11-07T04:16:47.098Z,53.05
2023-11-07T04:19:14.906Z,53.04
2023-11-07T04:21:44.037Z,52.99
2023-11-07T04:24:13.656Z,53.02
2023-11-07T04:26:42.120Z,52.88
2023-11-07T04:29:09.895Z,53.05
2023-11-07T04:31:39.289Z,52.95
2023-11-07T04:34:10.838Z,52.88
2023-11-07T04:36:44.043Z,52.98
2023-11-07T04:39:13.667Z,53.00
2023-11-07T04:41:42.709Z,53.07
2023-11-07T04:44:12.344Z,52.89
2023-11-07T04:46:40.347Z,52.80
2023-11-07T04:49:08.725Z,52.96
2023-11-07T04:51:37.665Z,52.77
2023-11-07T04:54:05.826Z,52.75
2023-11-07T04:56:34.249Z,52.73
2023-11-07T04:59:02.035Z,52.67
2023-11-07T05:01:30.687Z,52.56
2023-11-07T05:03:59.425Z,52.62
2023-11-07T05:06:27.891Z,52.72
2023-11-07T05:08:55.823Z,52.67
2023-11-07T05:11:23.658Z,52.79
2023-11-07T05:13:52.031Z,52.84
2023-11-07T05:16:20.470Z,52.88
2023-11-07T05:18:49.138Z,52.91
2023-11-07T05:21:17.239Z,52.79
2023-11-07T05:23:44.977Z,52.91
2023-11-07T05:26:14.588Z,53.00
2023-11-07T05:28:44.212Z,52.98
2023-11-07T05:31:11.924Z,52.93
2023-11-07T05:33:39.971Z,52.83
2023-11-07T05:36:08.676Z,52.92
2023-11-07T05:38:36.547Z,52.91
2023-11-07T05:41:05.836Z,52.98
2023-11-07T05:43:33.610Z,53.02
2023-11-07T05:46:01.330Z,52.97
2023-11-07T05:48:29.297Z,53.00
2023-11-07T05:50:58.797Z,53.10
2023-11-07T05:53:26.805Z,53.00
2023-11-07T05:55:55.273Z,52.99
2023-11-07T05:58:23.112Z,53.04
2023-11-07T06:00:51.368Z,53.04
2023-11-07T06:03:19.241Z,53.04
2023-11-07T06:05:47.183Z,53.12
2023-11-07T06:08:15.049Z,53.06
2023-11-07T06:10:44.278Z,53.17
2023-11-07T06:13:12.118Z,53.23
2023-11-07T06:15:39.887Z,53.34
2023-11-07T06:18:07.919Z,53.25
2023-11-07T06:20:35.878Z,53.30
2023-11-07T06:23:03.685Z,53.44
2023-11-07T06:25:31.416Z,53.49
2023-11-07T06:27:59.779Z,53.53
2023-11-07T06:30:31.147Z,53.49
2023-11-07T06:32:59.787Z,53.47
2023-11-07T06:35:27.775Z,53.69
2023-11-07T06:37:55.610Z,53.64
2023-11-07T06:40:24.892Z,53.57
2023-11-07T06:42:55.764Z,53.55
2023-11-07T06:45:24.350Z,53.65
2023-11-07T06:47:52.753Z,53.71
2023-11-07T06:50:20.739Z,53.65
2023-11-07T06:52:53.796Z,53.53
2023-11-07T06:55:26.103Z,53.68
2023-11-07T06:57:56.063Z,53.66
2023-11-07T07:00:26.596Z,53.65
2023-11-07T07:02:57.492Z,53.80
2023-11-07T07:05:29.289Z,53.69
2023-11-07T07:07:57.558Z,53.72
2023-11-07T07:10:26.106Z,53.61
2023-11-07T07:12:54.999Z,53.71
2023-11-07T07:15:22.878Z,53.55
2023-11-07T07:17:50.799Z,53.64
2023-11-07T07:20:18.615Z,53.65
2023-11-07T07:22:46.469Z,53.67
2023-11-07T07:25:17.332Z,53.60
2023-11-07T07:27:47.083Z,53.68
2023-11-07T07:30:23.465Z,53.65
2023-11-07T07:32:52.609Z,53.50
2023-11-07T07:35:22.674Z,53.60
2023-11-07T07:37:54.686Z,53.48
2023-11-07T07:40:30.207Z,53.60
2023-11-07T07:43:00.233Z,53.60
2023-11-07T07:45:30.827Z,53.54
2023-11-07T07:47:59.543Z,53.78
2023-11-07T07:50:31.703Z,53.87
2023-11-07T07:53:03.037Z,53.72
2023-11-07T07:55:35.136Z,53.68
2023-11-07T07:58:06.597Z,53.42
2023-11-07T08:00:34.422Z,53.66
2023-11-07T08:03:08.576Z,53.47
2023-11-07T08:05:41.744Z,53.52
2023-11-07T08:08:11.579Z,53.40
2023-11-07T08:10:40.496Z,53.42
2023-11-07T08:13:11.453Z,53.47
2023-11-07T08:15:39.613Z,53.46
2023-11-07T08:18:08.876Z,53.30
2023-11-07T08:20:39.480Z,53.39
2023-11-07T08:23:07.836Z,53.30
2023-11-07T08:25:36.111Z,53.18
2023-11-07T08:28:10.754Z,53.03
2023-11-07T08:30:39.161Z,53.02
2023-11-07T08:33:08.961Z,52.68
2023-11-07T08:35:40.621Z,52.78
2023-11-07T08:38:08.535Z,52.99
2023-11-07T08:40:37.736Z,52.90
2023-11-07T08:43:05.675Z,52.79
2023-11-07T08:45:36.571Z,52.62
2023-11-07T08:48:04.945Z,52.69
2023-11-07T08:50:33.503Z,52.61
2023-11-07T08:53:06.212Z,52.64
2023-11-07T08:55:34.302Z,52.62
2023-11-07T08:58:02.116Z,52.68
2023-11-07T09:00:30.737Z,52.43
2023-11-07T09:02:58.761Z,52.29
2023-11-07T09:05:27.405Z,52.25
2023-11-07T09:07:55.612Z,52.20
2023-11-07T09:10:23.424Z,52.31
2023-11-07T09:12:51.347Z,52.11
2023-11-07T09:15:21.303Z,52.17
2023-11-07T09:17:49.505Z,52.11
2023-11-07T09:20:17.679Z,52.01
2023-11-07T09:22:47.745Z,51.95
2023-11-07T09:25:15.489Z,51.83
2023-11-07T09:27:44.987Z,51.88
2023-11-07T09:30:13.722Z,52.15
2023-11-07T09:32:45.687Z,52.10
2023-11-07T09:35:13.624Z,52.12
2023-11-07T09:37:42.129Z,51.99
2023-11-07T09:40:14.087Z,52.11
2023-11-07T09:42:42.912Z,52.18
2023-11-07T09:45:22.260Z,51.97
2023-11-07T09:47:51.923Z,52.15
2023-11-07T09:50:23.262Z,52.05
2023-11-07T09:52:52.904Z,52.17
2023-11-07T09:55:20.803Z,52.22
2023-11-07T09:58:05.416Z,51.93
2023-11-07T10:00:46.652Z,52.06
2023-11-07T10:03:16.354Z,52.27
2023-11-07T10:05:47.913Z,52.27
2023-11-07T10:08:17.521Z,52.21
2023-11-07T10:11:05.248Z,52.18
2023-11-07T10:13:33.098Z,52.05
2023-11-07T10:18:51.254Z,51.79
2023-11-07T10:21:36.207Z,51.60
2023-11-07T10:24:05.085Z,51.92
2023-11-07T10:26:33.022Z,51.85
2023-11-07T10:29:18.057Z,51.61
2023-11-07T10:32:04.115Z,51.80
2023-11-07T10:34:32.611Z,51.91
2023-11-07T10:37:01.444Z,51.83
2023-11-07T10:39:31.362Z,51.79
2023-11-07T10:42:18.008Z,51.52
2023-11-07T10:44:49.229Z,51.97
2023-11-07T10:47:20.762Z,52.14
2023-11-07T10:49:52.849Z,51.89
2023-11-07T10:52:21.566Z,51.96
2023-11-07T10:54:49.521Z,52.17
2023-11-07T10:57:24.781Z,51.99
2023-11-07T11:00:04.583Z,52.18
2023-11-07T11:02:33.595Z,52.41
2023-11-07T11:05:03.155Z,52.48
2023-11-07T11:07:33.564Z,52.40
2023-11-07T11:10:03.397Z,52.39
2023-11-07T11:12:34.118Z,52.68
2023-11-07T11:15:02.858Z,52.81
2023-11-07T11:17:46.700Z,52.64
2023-11-07T11:20:25.082Z,52.46
2023-11-07T11:23:14.637Z,52.26
2023-11-07T11:26:23.806Z,51.92
2023-11-07T11:28:52.279Z,52.15
2023-11-07T11:31:22.289Z,51.97
2023-11-07T11:34:12.564Z,51.93
2023-11-07T11:36:45.571Z,51.90
2023-11-07T11:39:46.427Z,51.72
2023-11-07T11:42:14.412Z,52.03
2023-11-07T11:44:42.196Z,51.86
2023-11-07T11:47:29.931Z,51.71
2023-11-07T11:50:16.092Z,51.53
2023-11-07T11:52:43.956Z,51.66
2023-11-07T11:55:14.177Z,51.61
2023-11-07T11:58:20.628Z,51.43
2023-11-07T12:00:51.605Z,51.38
2023-11-07T12:03:23.512Z,51.54
2023-11-07T12:06:11.638Z,51.34
2023-11-07T12:08:44.217Z,51.46
2023-11-07T12:11:12.407Z,51.59
2023-11-07T12:13:40.796Z,51.66
2023-11-07T12:16:21.858Z,51.41
2023-11-07T12:18:51.976Z,51.96
2023-11-07T12:21:28.932Z,51.74
2023-11-07T12:24:00.962Z,51.67
2023-11-07T12:26:40.796Z,51.19
2023-11-07T12:29:09.871Z,51.46
2023-11-07T12:31:39.116Z,51.09
2023-11-07T12:34:08.319Z,50.89
2023-11-07T12:36:39.232Z,50.79
2023-11-07T12:39:10.112Z,50.72
2023-11-07T12:41:38.829Z,50.57
2023-11-07T12:44:14.575Z,50.63
2023-11-07T12:46:42.581Z,50.66
2023-11-07T12:49:20.037Z,50.61
2023-11-07T12:51:48.748Z,50.75
2023-11-07T12:54:17.439Z,50.64
2023-11-07T12:56:46.255Z,50.60
2023-11-07T12:59:16.248Z,50.54
2023-11-07T13:01:48.997Z,50.55
2023-11-07T13:04:19.395Z,50.21
2023-11-07T13:06:51.958Z,50.21
2023-11-07T13:09:22.865Z,50.13
2023-11-07T13:11:50.698Z,50.33
2023-11-07T13:14:19.680Z,50.03
2023-11-07T13:16:47.832Z,50.02
2023-11-07T13:19:16.994Z,50.16
2023-11-07T13:21:45.054Z,50.18
2023-11-07T13:24:13.225Z,50.16
2023-11-07T13:26:41.147Z,49.95
2023-11-07T13:29:09.036Z,50.04
2023-11-07T13:31:36.872Z,49.86
2023-11-07T13:34:04.942Z,49.90
2023-11-07T13:36:32.818Z,49.79
2023-11-07T13:39:00.650Z,49.82
2023-11-07T13:41:28.543Z,49.84
2023-11-07T13:43:56.311Z,49.93
2023-11-07T13:46:24.118Z,49.87
2023-11-07T13:48:54.489Z,49.95
2023-11-07T13:51:22.627Z,49.95
2023-11-07T13:53:52.006Z,49.99
2023-11-07T13:56:20.147Z,50.19
2023-11-07T13:58:49.086Z,50.13
2023-11-07T14:01:16.883Z,50.28
2023-11-07T14:03:45.465Z,50.16
2023-11-07T14:06:13.933Z,50.27
2023-11-07T14:08:42.193Z,50.06
2023-11-07T14:11:11.252Z,50.08
2023-11-07T14:13:39.001Z,49.93
2023-11-07T14:16:06.994Z,49.74
2023-11-07T14:18:34.879Z,49.36
2023-11-07T14:21:04.198Z,49.51
2023-11-07T14:23:32.061Z,49.54
2023-11-07T14:25:59.959Z,49.44
2023-11-07T14:28:28.342Z,49.38
2023-11-07T14:30:58.977Z,49.52
2023-11-07T14:33:29.404Z,49.65
2023-11-07T14:35:58.758Z,49.50
2023-11-07T14:38:30.043Z,49.52
2023-11-07T14:40:58.774Z,49.41
2023-11-07T14:43:26.744Z,49.31
2023-11-07T14:45:54.511Z,49.02
2023-11-07T14:48:23.214Z,48.89
2023-11-07T14:50:54.187Z,48.64
2023-11-07T14:53:24.537Z,48.55
2023-11-07T14:55:53.713Z,48.78
2023-11-07T14:58:23.142Z,48.72
2023-11-07T15:00:52.388Z,48.63
2023-11-07T15:03:20.294Z,48.67
2023-11-07T15:05:51.120Z,48.82
2023-11-07T15:08:20.363Z,49.01
2023-11-07T15:10:48.476Z,48.82
2023-11-07T15:13:16.245Z,48.62
2023-11-07T15:15:44.414Z,48.78
2023-11-07T15:18:12.522Z,48.69
2023-11-07T15:20:42.170Z,48.59
2023-11-07T15:23:10.001Z,48.59
2023-11-07T15:25:38.980Z,48.69
2023-11-07T15:28:06.808Z,48.50
2023-11-07T15:30:36.718Z,48.69
2023-11-07T15:33:05.157Z,48.69
2023-11-07T15:35:38.044Z,48.89
2023-11-07T15:38:07.771Z,49.08
2023-11-07T15:40:36.827Z,49.15
2023-11-07T15:43:09.673Z,49.12
2023-11-07T15:45:37.876Z,48.94
2023-11-07T15:48:09.506Z,49.13
2023-11-07T15:50:38.681Z,49.12
2023-11-07T15:53:09.647Z,48.90
2023-11-07T15:55:40.149Z,48.86
2023-11-07T15:58:09.846Z,48.95
2023-11-07T16:00:37.693Z,49.00
2023-11-07T16:03:06.693Z,49.09
2023-11-07T16:05:36.785Z,49.23
2023-11-07T16:08:08.088Z,49.27
2023-11-07T16:10:36.939Z,49.68
2023-11-07T16:13:05.787Z,49.72
2023-11-07T16:15:33.863Z,49.59
2023-11-07T16:18:02.692Z,49.90
2023-11-07T16:20:30.664Z,49.72
2023-11-07T16:22:58.551Z,49.94
2023-11-07T16:25:26.298Z,49.97
2023-11-07T16:27:54.762Z,50.01
2023-11-07T16:30:23.151Z,50.13
2023-11-07T16:32:52.002Z,50.05
2023-11-07T16:35:19.953Z,50.09
2023-11-07T16:37:47.762Z,50.28
2023-11-07T16:40:17.736Z,50.48
2023-11-07T16:42:46.240Z,50.48
2023-11-07T16:45:16.127Z,50.69
2023-11-07T16:47:45.112Z,50.82
2023-11-07T16:50:15.990Z,50.97
2023-11-07T16:52:43.992Z,51.15
2023-11-07T16:55:14.933Z,51.19
2023-11-07T16:57:46.050Z,51.23
2023-11-07T17:00:18.533Z,51.28
2023-11-07T17:02:46.393Z,51.33
2023-11-07T17:05:14.394Z,51.52
2023-11-07T17:07:42.436Z,51.58
2023-11-07T17:10:11.756Z,51.69
2023-11-07T17:12:39.732Z,51.64
2023-11-07T17:15:09.260Z,51.55
2023-11-07T17:17:38.081Z,51.55
2023-11-07T17:20:09.101Z,51.75
2023-11-07T17:22:38.750Z,51.94
2023-11-07T17:25:07.825Z,51.98
2023-11-07T17:27:36.372Z,52.09
2023-11-07T17:30:05.376Z,52.07
2023-11-07T17:32:33.305Z,52.03
2023-11-07T17:35:04.668Z,52.20
2023-11-07T17:37:34.123Z,52.20
2023-11-07T17:40:01.898Z,52.19
2023-11-07T17:42:30.812Z,52.19
2023-11-07T17:44:58.782Z,52.03
2023-11-07T17:47:28.733Z,52.20
2023-11-07T17:49:57.994Z,52.23
2023-11-07T17:52:25.887Z,52.47
2023-11-07T17:54:54.533Z,52.38
2023-11-07T17:57:22.905Z,52.51
2023-11-07T17:59:53.934Z,52.57
2023-11-07T18:02:24.068Z,52.51
2023-11-07T18:04:51.965Z,52.59
2023-11-07T18:07:23.530Z,52.43
2023-11-07T18:09:51.496Z,52.48
2023-11-07T18:12:20.731Z,52.34
2023-11-07T18:14:48.787Z,52.43
2023-11-07T18:17:16.638Z,52.53
2023-11-07T18:19:44.557Z,52.38
2023-11-07T18:22:13.264Z,52.40
2023-11-07T18:24:41.107Z,52.35
2023-11-07T18:27:08.990Z,52.22
2023-11-07T18:29:37.964Z,52.16
2023-11-07T18:32:08.107Z,52.15
2023-11-07T18:34:36.672Z,52.23
2023-11-07T18:37:08.988Z,52.29
2023-11-07T18:39:37.590Z,52.34
2023-11-07T18:42:05.750Z,52.32
2023-11-07T18:44:36.883Z,52.40
2023-11-07T18:47:05.325Z,52.34
2023-11-07T18:49:33.687Z,52.46
2023-11-07T18:52:01.900Z,52.44
2023-11-07T18:54:30.517Z,52.61
2023-11-07T18:56:59.021Z,52.74
2023-11-07T18:59:34.520Z,52.70
2023-11-07T19:02:08.490Z,52.80
2023-11-07T19:04:37.894Z,52.86
2023-11-07T19:07:08.815Z,52.79
2023-11-07T19:09:37.097Z,52.83
2023-11-07T19:12:05.886Z,52.78
2023-11-07T19:14:33.904Z,52.79
2023-11-07T19:17:01.777Z,52.80
2023-11-07T19:19:30.060Z,52.78
2023-11-07T19:22:02.098Z,52.83
2023-11-07T19:24:30.212Z,52.84
2023-11-07T19:26:59.138Z,52.80
2023-11-07T19:29:27.152Z,52.98
2023-11-07T19:31:55.304Z,52.90
2023-11-07T19:34:23.922Z,52.89
2023-11-07T19:36:52.165Z,52.88
2023-11-07T19:39:21.729Z,52.90
2023-11-07T19:41:49.775Z,52.84
2023-11-07T19:44:18.021Z,52.80
2023-11-07T19:46:45.934Z,52.67
2023-11-07T19:49:13.765Z,52.73
2023-11-07T19:51:42.020Z,52.66
2023-11-07T19:54:12.001Z,52.71
2023-11-07T19:56:41.850Z,52.61
2023-11-07T19:59:12.239Z,52.51
2023-11-07T20:01:40.725Z,52.50
2023-11-07T20:04:09.621Z,52.31
2023-11-07T20:06:37.806Z,52.18
2023-11-07T20:09:06.237Z,52.18
2023-11-07T20:11:36.130Z,52.19
2023-11-07T20:14:04.307Z,52.19
2023-11-07T20:16:32.127Z,52.12
2023-11-07T20:18:59.946Z,52.20
2023-11-07T20:21:28.039Z,52.04
2023-11-07T20:23:55.877Z,52.06
2023-11-07T20:26:23.723Z,52.14
2023-11-07T20:28:51.533Z,52.05
2023-11-07T20:31:20.238Z,52.14
2023-11-07T20:33:50.307Z,51.98
2023-11-07T20:36:19.964Z,52.02
2023-11-07T20:38:49.110Z,51.97
2023-11-07T20:41:18.607Z,52.00
2023-11-07T20:43:47.717Z,51.95
2023-11-07T20:46:30.803Z,51.68
2023-11-07T20:49:04.632Z,51.49
2023-11-07T20:51:35.445Z,51.70
2023-11-07T20:54:04.708Z,51.56
2023-11-07T20:56:33.932Z,51.45
2023-11-07T20:59:02.345Z,51.46
2023-11-07T21:01:30.151Z,51.28
2023-11-07T21:03:58.210Z,51.29
2023-11-07T21:06:26.937Z,51.19
2023-11-07T21:08:54.787Z,51.24
2023-11-07T21:11:22.630Z,51.18
2023-11-07T21:13:54.019Z,50.92
2023-11-07T21:16:21.758Z,51.14
2023-11-07T21:18:50.179Z,50.97
2023-11-07T21:21:18.220Z,51.04
2023-11-07T21:23:46.008Z,51.08
2023-11-07T21:26:15.294Z,51.01
2023-11-07T21:28:43.159Z,51.06
2023-11-07T21:31:10.981Z,51.19
2023-11-07T21:33:39.941Z,51.00
2023-11-07T21:36:08.067Z,50.96
2023-11-07T21:38:36.099Z,50.91
2023-11-07T21:41:04.304Z,50.96
2023-11-07T21:43:32.188Z,50.86
2023-11-07T21:46:01.561Z,50.92
2023-11-07T21:48:29.736Z,50.88
2023-11-07T21:50:57.840Z,50.80
2023-11-07T21:53:25.736Z,50.87
2023-11-07T21:55:54.592Z,50.85
2023-11-07T21:58:22.811Z,50.89
2023-11-07T22:00:50.695Z,50.96
2023-11-07T22:03:18.907Z,50.93
2023-11-07T22:05:46.819Z,50.76
2023-11-07T22:08:14.583Z,50.82
2023-11-07T22:10:42.495Z,50.78
2023-11-07T22:13:10.225Z,50.66
2023-11-07T22:15:38.189Z,50.89
2023-11-07T22:18:06.062Z,50.96
2023-11-07T22:20:33.826Z,50.95
2023-11-07T22:23:02.239Z,50.80
2023-11-07T22:25:30.050Z,51.04
2023-11-07T22:27:57.824Z,50.93
2023-11-07T22:30:26.515Z,50.98
2023-11-07T22:32:54.399Z,50.96
2023-11-07T22:35:23.324Z,51.23
2023-11-07T22:37:51.494Z,51.29
2023-11-07T22:40:19.339Z,51.22
2023-11-07T22:42:47.176Z,51.38
2023-11-07T22:45:16.949Z,51.14
2023-11-07T22:47:44.855Z,51.34
2023-11-07T22:50:12.688Z,51.26
2023-11-07T22:52:40.484Z,51.28
2023-11-07T22:55:12.575Z,51.28
2023-11-07T22:57:40.920Z,51.26
2023-11-07T23:00:11.614Z,51.21
2023-11-07T23:02:40.622Z,51.44
2023-11-07T23:05:09.070Z,51.47
2023-11-07T23:07:36.822Z,51.55
2023-11-07T23:10:05.067Z,51.49
2023-11-07T23:12:32.887Z,51.67
2023-11-07T23:15:00.777Z,51.53
2023-11-07T23:17:28.630Z,51.81
2023-11-07T23:19:56.451Z,51.71
2023-11-07T23:22:24.194Z,51.64
2023-11-07T23:24:53.702Z,51.61
2023-11-07T23:27:21.484Z,51.72
2023-11-07T23:29:55.062Z,51.86
2023-11-07T23:32:23.882Z,51.99
2023-11-07T23:34:51.860Z,52.05
2023-11-07T23:37:22.453Z,52.12
2023-11-07T23:39:50.319Z,52.15
2023-11-07T23:42:19.902Z,52.11
2023-11-07T23:44:48.453Z,52.12
2023-11-07T23:47:16.216Z,52.11
2023-11-07T23:49:44.010Z,52.05
2023-11-07T23:52:11.976Z,52.18
2023-11-07T23:54:39.793Z,52.17
2023-11-07T23:57:07.646Z,52.19
2023-11-07T23:59:35.598Z,52.15
